WZZ963 UGKO-EPWA
Flight info
| Callsign | WZZ963 |
|---|---|
| Flight time | N/A |
| Altitude | 34000 |
| Route | KUSSA1D KUSSA DCT IZERO UL21 ATCEF UM10 OLUPO UL851 KARDE UN644 SIN UW90 INB UL746 ODERO L621 REVDA DCT KARIL DCT KENIN DCT LENOV DCT ORTEB DCT KONZI DCT LOGDA LOGDA6U |
| Aircraft | A21N/M-SDE1E2E3FGIJ1J4RWXY/LB1 |
Departure
| Time | 2026-04-26 12:59 |
|---|---|
| Airport | David the Builder Kutaisi International Airport (UGKO) |
Arrival
| Time | N/A |
|---|---|
| Airport | Warsaw Chopin Airport (EPWA) |
| Time | Latitude | Longitude | Altitude | Speed | Heading |
|---|---|---|---|---|---|
| 2026-04-26 12:28 | 42.18115 | 42.46522 | 165 ft | 0 kts | 72° |
| 2026-04-26 12:54 | 42.18118 | 42.46531 | 165 ft | 2 kts | 72° |
| 2026-04-26 12:54 | 42.18122 | 42.46572 | 165 ft | 5 kts | 106° |
| 2026-04-26 12:55 | 42.18079 | 42.46610 | 165 ft | 8 kts | 159° |
| 2026-04-26 12:55 | 42.18022 | 42.46635 | 164 ft | 6 kts | 160° |
| 2026-04-26 12:55 | 42.17987 | 42.46609 | 163 ft | 7 kts | 238° |
| 2026-04-26 12:55 | 42.17945 | 42.46595 | 163 ft | 7 kts | 155° |
| 2026-04-26 12:56 | 42.17905 | 42.46640 | 163 ft | 7 kts | 136° |
| 2026-04-26 12:56 | 42.17865 | 42.46690 | 164 ft | 8 kts | 140° |
| 2026-04-26 12:56 | 42.17813 | 42.46719 | 164 ft | 8 kts | 169° |
| 2026-04-26 12:56 | 42.17757 | 42.46733 | 164 ft | 8 kts | 169° |
| 2026-04-26 12:57 | 42.17696 | 42.46746 | 163 ft | 9 kts | 169° |
| 2026-04-26 12:57 | 42.17630 | 42.46762 | 162 ft | 10 kts | 169° |
| 2026-04-26 12:57 | 42.17554 | 42.46781 | 161 ft | 11 kts | 171° |
| 2026-04-26 12:58 | 42.17503 | 42.46839 | 161 ft | 6 kts | 81° |
| 2026-04-26 12:58 | 42.17541 | 42.47145 | 164 ft | 67 kts | 80° |
| 2026-04-26 12:58 | 42.17657 | 42.48062 | 169 ft | 127 kts | 80° |
| 2026-04-26 12:58 | 42.17835 | 42.49464 | 238 ft | 169 kts | 82° |
| 2026-04-26 12:59 | 42.18035 | 42.51036 | 757 ft | 173 kts | 81° |
| 2026-04-26 12:59 | 42.18242 | 42.52654 | 1359 ft | 179 kts | 81° |
| 2026-04-26 12:59 | 42.18446 | 42.54352 | 1787 ft | 189 kts | 81° |
| 2026-04-26 12:59 | 42.18659 | 42.56193 | 2068 ft | 206 kts | 81° |
| 2026-04-26 13:00 | 42.18538 | 42.58155 | 2331 ft | 225 kts | 115° |
| 2026-04-26 13:00 | 42.17426 | 42.59734 | 2656 ft | 245 kts | 152° |
| 2026-04-26 13:00 | 42.15709 | 42.60197 | 3099 ft | 260 kts | 185° |
| 2026-04-26 13:00 | 42.14024 | 42.59302 | 3664 ft | 268 kts | 220° |
| 2026-04-26 13:01 | 42.12955 | 42.57246 | 4374 ft | 268 kts | 246° |
| 2026-04-26 13:01 | 42.12191 | 42.54953 | 5025 ft | 272 kts | 244° |
| 2026-04-26 13:01 | 42.11356 | 42.52668 | 5747 ft | 272 kts | 243° |
| 2026-04-26 13:01 | 42.10493 | 42.50442 | 6455 ft | 272 kts | 243° |
| 2026-04-26 13:02 | 42.09726 | 42.48067 | 7080 ft | 275 kts | 250° |
| 2026-04-26 13:02 | 42.09179 | 42.45587 | 7645 ft | 280 kts | 255° |
| 2026-04-26 13:02 | 42.08706 | 42.43034 | 8205 ft | 285 kts | 255° |
| 2026-04-26 13:02 | 42.08242 | 42.40450 | 8856 ft | 286 kts | 255° |
| 2026-04-26 13:03 | 42.07775 | 42.37849 | 9559 ft | 285 kts | 255° |
| 2026-04-26 13:03 | 42.07381 | 42.35720 | 10105 ft | 285 kts | 254° |
| 2026-04-26 13:03 | 42.07172 | 42.34616 | 10328 ft | 287 kts | 255° |
| 2026-04-26 13:03 | 42.06664 | 42.31937 | 10626 ft | 301 kts | 255° |
| 2026-04-26 13:04 | 42.06130 | 42.29121 | 10887 ft | 315 kts | 255° |
| 2026-04-26 13:04 | 42.05583 | 42.26234 | 11288 ft | 323 kts | 255° |
| 2026-04-26 13:04 | 42.05024 | 42.23286 | 11901 ft | 324 kts | 255° |
| 2026-04-26 13:04 | 42.04465 | 42.20341 | 12521 ft | 325 kts | 255° |
| 2026-04-26 13:05 | 42.03901 | 42.17374 | 13118 ft | 326 kts | 255° |
| 2026-04-26 13:05 | 42.03342 | 42.14433 | 13681 ft | 327 kts | 256° |
| 2026-04-26 13:05 | 42.02776 | 42.11454 | 14238 ft | 329 kts | 256° |
| 2026-04-26 13:05 | 42.02214 | 42.08498 | 14758 ft | 331 kts | 256° |
| 2026-04-26 13:06 | 42.01635 | 42.05464 | 15265 ft | 333 kts | 256° |
| 2026-04-26 13:06 | 42.01057 | 42.02431 | 15759 ft | 336 kts | 256° |
| 2026-04-26 13:06 | 42.00477 | 41.99404 | 16243 ft | 338 kts | 256° |
| 2026-04-26 13:06 | 41.99884 | 41.96312 | 16689 ft | 340 kts | 256° |
| 2026-04-26 13:07 | 41.99294 | 41.93239 | 17177 ft | 343 kts | 256° |
| 2026-04-26 13:07 | 41.98700 | 41.90155 | 17612 ft | 345 kts | 256° |
| 2026-04-26 13:07 | 41.98096 | 41.87022 | 18058 ft | 347 kts | 256° |
| 2026-04-26 13:07 | 41.97482 | 41.83858 | 18512 ft | 349 kts | 255° |
| 2026-04-26 13:08 | 41.96709 | 41.80762 | 18941 ft | 352 kts | 249° |
| 2026-04-26 13:08 | 41.95685 | 41.77761 | 19324 ft | 354 kts | 243° |
| 2026-04-26 13:08 | 41.94471 | 41.74910 | 19720 ft | 357 kts | 240° |
| 2026-04-26 13:08 | 41.93195 | 41.72048 | 20103 ft | 360 kts | 240° |
| 2026-04-26 13:09 | 41.91885 | 41.69128 | 20520 ft | 362 kts | 240° |
| 2026-04-26 13:09 | 41.90589 | 41.66243 | 20909 ft | 364 kts | 240° |
| 2026-04-26 13:09 | 41.89278 | 41.63322 | 21287 ft | 366 kts | 240° |
| 2026-04-26 13:09 | 41.87964 | 41.60396 | 21653 ft | 367 kts | 239° |
| 2026-04-26 13:10 | 41.86619 | 41.57402 | 22019 ft | 369 kts | 239° |
| 2026-04-26 13:10 | 41.85285 | 41.54434 | 22372 ft | 371 kts | 239° |
| 2026-04-26 13:10 | 41.83959 | 41.51486 | 22733 ft | 373 kts | 239° |
| 2026-04-26 13:10 | 41.82614 | 41.48499 | 23053 ft | 375 kts | 239° |
| 2026-04-26 13:11 | 41.81268 | 41.45511 | 23380 ft | 377 kts | 239° |
| 2026-04-26 13:11 | 41.79897 | 41.42469 | 23691 ft | 379 kts | 239° |
| 2026-04-26 13:11 | 41.78534 | 41.39451 | 24032 ft | 381 kts | 239° |
| 2026-04-26 13:11 | 41.77170 | 41.36431 | 24365 ft | 382 kts | 239° |
| 2026-04-26 13:12 | 41.75792 | 41.33384 | 24722 ft | 382 kts | 238° |
| 2026-04-26 13:12 | 41.74421 | 41.30357 | 25067 ft | 383 kts | 238° |
| 2026-04-26 13:12 | 41.73047 | 41.27323 | 25390 ft | 383 kts | 238° |
| 2026-04-26 13:12 | 41.71665 | 41.24273 | 25706 ft | 384 kts | 238° |
| 2026-04-26 13:13 | 41.70272 | 41.21208 | 26016 ft | 385 kts | 238° |
| 2026-04-26 13:13 | 41.68888 | 41.18164 | 26331 ft | 385 kts | 238° |
| 2026-04-26 13:13 | 41.67509 | 41.15125 | 26632 ft | 386 kts | 239° |
| 2026-04-26 13:13 | 41.66299 | 41.11909 | 26919 ft | 387 kts | 245° |
| 2026-04-26 13:14 | 41.65409 | 41.08548 | 27203 ft | 389 kts | 252° |
| 2026-04-26 13:14 | 41.64812 | 41.05015 | 27455 ft | 392 kts | 257° |
| 2026-04-26 13:14 | 41.64340 | 41.01445 | 27708 ft | 393 kts | 257° |
| 2026-04-26 13:14 | 41.63878 | 40.97810 | 27957 ft | 395 kts | 257° |
| 2026-04-26 13:15 | 41.63421 | 40.94220 | 28196 ft | 396 kts | 257° |
| 2026-04-26 13:15 | 41.62956 | 40.90595 | 28451 ft | 397 kts | 257° |
| 2026-04-26 13:15 | 41.62485 | 40.86948 | 28690 ft | 398 kts | 257° |
| 2026-04-26 13:15 | 41.62169 | 40.84521 | 28851 ft | 399 kts | 257° |
| 2026-04-26 13:16 | 41.61530 | 40.79623 | 29170 ft | 401 kts | 257° |
| 2026-04-26 13:16 | 41.61054 | 40.75996 | 29384 ft | 402 kts | 257° |
| 2026-04-26 13:16 | 41.60570 | 40.72311 | 29607 ft | 403 kts | 257° |
| 2026-04-26 13:16 | 41.60139 | 40.68590 | 29826 ft | 405 kts | 259° |
| 2026-04-26 13:17 | 41.59717 | 40.61075 | 30269 ft | 410 kts | 265° |
| 2026-04-26 13:17 | 41.59731 | 40.57276 | 30471 ft | 413 kts | 268° |
| 2026-04-26 13:18 | 41.60080 | 40.49535 | 30845 ft | 417 kts | 270° |
| 2026-04-26 13:18 | 41.60275 | 40.45690 | 31028 ft | 418 kts | 270° |
| 2026-04-26 13:18 | 41.60663 | 40.37923 | 31437 ft | 420 kts | 270° |
| 2026-04-26 13:19 | 41.60856 | 40.34059 | 31699 ft | 419 kts | 270° |
| 2026-04-26 13:19 | 41.61048 | 40.30171 | 31964 ft | 418 kts | 270° |
| 2026-04-26 13:19 | 41.61237 | 40.26292 | 32198 ft | 418 kts | 270° |
| 2026-04-26 13:19 | 41.61424 | 40.22435 | 32424 ft | 418 kts | 270° |
| 2026-04-26 13:20 | 41.61610 | 40.18562 | 32661 ft | 418 kts | 270° |
| 2026-04-26 13:20 | 41.61792 | 40.14742 | 32868 ft | 418 kts | 270° |
| 2026-04-26 13:20 | 41.61978 | 40.10823 | 33079 ft | 418 kts | 270° |
| 2026-04-26 13:20 | 41.62159 | 40.06979 | 33330 ft | 417 kts | 270° |
| 2026-04-26 13:21 | 41.62339 | 40.03103 | 33569 ft | 417 kts | 270° |
| 2026-04-26 13:21 | 41.62458 | 40.00533 | 33711 ft | 416 kts | 270° |
| 2026-04-26 13:21 | 41.62693 | 39.95430 | 33990 ft | 416 kts | 270° |
| 2026-04-26 13:21 | 41.62868 | 39.91604 | 34191 ft | 416 kts | 270° |
| 2026-04-26 13:22 | 41.63042 | 39.87760 | 34389 ft | 415 kts | 270° |
| 2026-04-26 13:22 | 41.63216 | 39.83891 | 34583 ft | 415 kts | 270° |
| 2026-04-26 13:22 | 41.63387 | 39.80073 | 34745 ft | 414 kts | 270° |
| 2026-04-26 13:22 | 41.63557 | 39.76227 | 34894 ft | 414 kts | 271° |
| 2026-04-26 13:23 | 41.63724 | 39.72429 | 35035 ft | 414 kts | 271° |
| 2026-04-26 13:23 | 41.63893 | 39.68560 | 35172 ft | 414 kts | 271° |
| 2026-04-26 13:23 | 41.64058 | 39.64726 | 35278 ft | 415 kts | 271° |
| 2026-04-26 13:23 | 41.64222 | 39.60899 | 35383 ft | 416 kts | 271° |
| 2026-04-26 13:24 | 41.64387 | 39.57032 | 35496 ft | 416 kts | 271° |
| 2026-04-26 13:24 | 41.64550 | 39.53177 | 35607 ft | 416 kts | 271° |
| 2026-04-26 13:24 | 41.64711 | 39.49303 | 35709 ft | 417 kts | 271° |
| 2026-04-26 13:25 | 41.65028 | 39.41633 | 35902 ft | 418 kts | 271° |
| 2026-04-26 13:25 | 41.65343 | 39.33855 | 35910 ft | 419 kts | 270° |
| 2026-04-26 13:26 | 41.65653 | 39.26095 | 35916 ft | 419 kts | 270° |
| 2026-04-26 13:26 | 41.65957 | 39.18350 | 35915 ft | 420 kts | 270° |
| 2026-04-26 13:27 | 41.66259 | 39.10531 | 35913 ft | 420 kts | 270° |
| 2026-04-26 13:27 | 41.66551 | 39.02790 | 35914 ft | 420 kts | 271° |
| 2026-04-26 13:28 | 41.66840 | 38.95022 | 35917 ft | 420 kts | 271° |
| 2026-04-26 13:28 | 41.67126 | 38.87207 | 35912 ft | 420 kts | 271° |
| 2026-04-26 13:29 | 41.67404 | 38.79427 | 35922 ft | 421 kts | 271° |
| 2026-04-26 13:29 | 41.67677 | 38.71648 | 35917 ft | 421 kts | 271° |
| 2026-04-26 13:30 | 41.67945 | 38.63835 | 35915 ft | 421 kts | 271° |
| 2026-04-26 13:30 | 41.68211 | 38.55981 | 35912 ft | 422 kts | 271° |
| 2026-04-26 13:31 | 41.68469 | 38.48180 | 35916 ft | 422 kts | 271° |
| 2026-04-26 13:31 | 41.68722 | 38.40389 | 35915 ft | 422 kts | 271° |
| 2026-04-26 13:32 | 41.68970 | 38.32556 | 35916 ft | 423 kts | 270° |
| 2026-04-26 13:32 | 41.69218 | 38.24606 | 35924 ft | 423 kts | 270° |
| 2026-04-26 13:33 | 41.69456 | 38.16763 | 35914 ft | 423 kts | 270° |
| 2026-04-26 13:33 | 41.69689 | 38.08873 | 35920 ft | 423 kts | 271° |
| 2026-04-26 13:34 | 41.69917 | 38.00999 | 35918 ft | 424 kts | 271° |
| 2026-04-26 13:34 | 41.70140 | 37.93156 | 35916 ft | 424 kts | 271° |
| 2026-04-26 13:35 | 41.70356 | 37.85303 | 35919 ft | 424 kts | 271° |
| 2026-04-26 13:35 | 41.70579 | 37.77448 | 35921 ft | 424 kts | 272° |
| 2026-04-26 13:36 | 41.71239 | 37.69623 | 35923 ft | 425 kts | 278° |
| 2026-04-26 13:36 | 41.72583 | 37.61894 | 35915 ft | 427 kts | 285° |
| 2026-04-26 13:37 | 41.74585 | 37.54445 | 35927 ft | 428 kts | 291° |
| 2026-04-26 13:37 | 41.76920 | 37.47123 | 35918 ft | 428 kts | 292° |
| 2026-04-26 13:38 | 41.79259 | 37.39804 | 35922 ft | 428 kts | 292° |
| 2026-04-26 13:38 | 41.81590 | 37.32471 | 35921 ft | 428 kts | 291° |
| 2026-04-26 13:39 | 41.83914 | 37.25127 | 35918 ft | 428 kts | 291° |
| 2026-04-26 13:39 | 41.86224 | 37.17807 | 35918 ft | 429 kts | 291° |
| 2026-04-26 13:40 | 41.88445 | 37.10359 | 35923 ft | 428 kts | 288° |
| 2026-04-26 13:40 | 41.90070 | 37.02704 | 35928 ft | 428 kts | 282° |
| 2026-04-26 13:41 | 41.91038 | 36.94888 | 35933 ft | 427 kts | 276° |
| 2026-04-26 13:41 | 41.91589 | 36.86952 | 35936 ft | 426 kts | 275° |
| 2026-04-26 13:42 | 41.92115 | 36.79045 | 35935 ft | 426 kts | 275° |
| 2026-04-26 13:42 | 41.92639 | 36.71138 | 35935 ft | 426 kts | 275° |
| 2026-04-26 13:43 | 41.93156 | 36.63269 | 35933 ft | 426 kts | 275° |
| 2026-04-26 13:43 | 41.93674 | 36.55322 | 35928 ft | 427 kts | 275° |
| 2026-04-26 13:44 | 41.94185 | 36.47417 | 35932 ft | 427 kts | 275° |
| 2026-04-26 13:44 | 41.94693 | 36.39471 | 35933 ft | 427 kts | 275° |
| 2026-04-26 13:45 | 41.95191 | 36.31575 | 35929 ft | 427 kts | 274° |
| 2026-04-26 13:45 | 41.95687 | 36.23638 | 35937 ft | 427 kts | 275° |
| 2026-04-26 13:46 | 41.96177 | 36.15705 | 35926 ft | 426 kts | 275° |
| 2026-04-26 13:46 | 41.96662 | 36.07785 | 35935 ft | 427 kts | 275° |
| 2026-04-26 13:47 | 41.97140 | 35.99876 | 35929 ft | 426 kts | 275° |
| 2026-04-26 13:47 | 41.97612 | 35.91969 | 35936 ft | 426 kts | 274° |
| 2026-04-26 13:48 | 41.98078 | 35.84045 | 35936 ft | 426 kts | 275° |
| 2026-04-26 13:48 | 41.98540 | 35.76115 | 35938 ft | 426 kts | 275° |
| 2026-04-26 13:49 | 41.98998 | 35.68170 | 35934 ft | 426 kts | 275° |
| 2026-04-26 13:49 | 41.99448 | 35.60285 | 35934 ft | 426 kts | 275° |
| 2026-04-26 13:50 | 41.99894 | 35.52356 | 35938 ft | 425 kts | 275° |
| 2026-04-26 13:50 | 42.00332 | 35.44470 | 35941 ft | 425 kts | 275° |
| 2026-04-26 13:51 | 42.00764 | 35.36578 | 35935 ft | 424 kts | 275° |
| 2026-04-26 13:51 | 42.01192 | 35.28652 | 35936 ft | 425 kts | 274° |
| 2026-04-26 13:52 | 42.01615 | 35.20735 | 35936 ft | 425 kts | 274° |
| 2026-04-26 13:52 | 42.02032 | 35.12838 | 35937 ft | 425 kts | 274° |
| 2026-04-26 13:53 | 42.02145 | 35.04950 | 35936 ft | 425 kts | 268° |
| 2026-04-26 13:53 | 42.01776 | 34.97030 | 35934 ft | 425 kts | 267° |
| 2026-04-26 13:54 | 42.01366 | 34.89114 | 35934 ft | 425 kts | 267° |
| 2026-04-26 13:54 | 42.00970 | 34.81216 | 35941 ft | 425 kts | 267° |
| 2026-04-26 13:55 | 42.00466 | 34.70705 | 35942 ft | 424 kts | 267° |
| 2026-04-26 13:56 | 41.99817 | 34.57500 | 35952 ft | 425 kts | 267° |
| 2026-04-26 13:56 | 41.99420 | 34.49645 | 35952 ft | 424 kts | 267° |
| 2026-04-26 13:57 | 41.99018 | 34.41765 | 35956 ft | 423 kts | 268° |
| 2026-04-26 13:57 | 41.98610 | 34.33892 | 35956 ft | 423 kts | 267° |
| 2026-04-26 13:58 | 41.98195 | 34.25978 | 35959 ft | 423 kts | 267° |
| 2026-04-26 13:58 | 41.97780 | 34.18147 | 35955 ft | 422 kts | 267° |